Time;durP1;ratioP1;P1;durP2;ratioP2;P2;SDS_P1;SDS_P2;PMS_P1;PMS_P2;Temp;Humidity;BMP_temperature;BMP_pressure;BME280_temperature;BME280_humidity;BME280_pressure;Samples;Min_cycle;Max_cycle;Signal;HPM_P1;HPM_P2
2023/05/21 00:00:07;;;;;;;3.00;2.70;;;23.00;78.90;;;;;;5093445;28;20439;-80
2023/05/21 00:02:34;;;;;;;3.10;2.70;;;23.00;78.70;;;;;;5080732;28;20446;-80
2023/05/21 00:05:01;;;;;;;2.83;2.60;;;23.00;78.70;;;;;;5073357;28;20574;-80
2023/05/21 00:07:30;;;;;;;2.97;2.67;;;23.00;78.90;;;;;;5073449;28;20447;-80
2023/05/21 00:09:57;;;;;;;2.73;2.43;;;23.00;79.10;;;;;;5085053;28;20478;-80
2023/05/21 00:12:23;;;;;;;2.30;2.10;;;23.00;79.00;;;;;;5093396;28;20438;-80
2023/05/21 00:14:50;;;;;;;2.73;2.53;;;22.90;79.00;;;;;;5093286;28;20435;-80
2023/05/21 00:17:18;;;;;;;4.00;2.70;;;23.00;78.90;;;;;;5093650;28;20794;-81
2023/05/21 00:19:45;;;;;;;2.60;1.97;;;23.00;79.10;;;;;;5093201;28;20452;-80
2023/05/21 00:22:13;;;;;;;2.60;2.40;;;22.90;78.80;;;;;;5093316;28;20435;-80
2023/05/21 00:24:39;;;;;;;2.87;2.63;;;22.90;79.00;;;;;;5093176;28;20552;-86
2023/05/21 00:27:06;;;;;;;2.37;2.17;;;23.10;79.30;;;;;;5089606;28;20498;-80
2023/05/21 00:29:33;;;;;;;3.33;2.60;;;22.90;78.70;;;;;;5093170;28;20434;-84
2023/05/21 00:32:00;;;;;;;3.03;2.80;;;22.90;78.60;;;;;;5093375;28;20446;-80
2023/05/21 00:34:28;;;;;;;3.30;3.00;;;22.90;78.70;;;;;;5093365;28;20435;-80
2023/05/21 00:36:56;;;;;;;2.23;2.07;;;22.90;78.50;;;;;;5093317;28;20459;-87
2023/05/21 00:39:23;;;;;;;2.50;2.30;;;22.90;79.30;;;;;;5093223;28;20442;-80
2023/05/21 00:41:50;;;;;;;2.80;2.60;;;22.90;79.20;;;;;;5093219;28;20438;-80
2023/05/21 00:44:18;;;;;;;2.30;2.10;;;22.90;79.00;;;;;;5093311;28;20483;-80
2023/05/21 00:46:47;;;;;;;8.43;2.30;;;22.90;79.40;;;;;;5093208;28;20452;-80
2023/05/21 00:49:15;;;;;;;2.60;2.40;;;22.90;78.80;;;;;;5093203;28;20885;-80
2023/05/21 00:51:44;;;;;;;2.70;2.50;;;22.90;78.80;;;;;;5078697;28;20487;-87
2023/05/21 00:54:10;;;;;;;2.63;2.43;;;22.90;79.20;;;;;;5073014;28;20446;-86
2023/05/21 00:56:37;;;;;;;3.63;2.60;;;22.90;78.70;;;;;;5072790;28;20445;-87
2023/05/21 00:59:04;;;;;;;5.67;2.53;;;22.90;79.00;;;;;;5077741;28;20448;-86
2023/05/21 01:01:32;;;;;;;5.13;2.87;;;22.90;79.10;;;;;;5093047;28;20443;-80
2023/05/21 01:04:01;;;;;;;3.13;2.83;;;22.90;79.20;;;;;;5092962;28;20482;-80
2023/05/21 01:06:28;;;;;;;2.67;2.47;;;22.90;78.70;;;;;;5092816;28;20463;-80
2023/05/21 01:08:56;;;;;;;3.03;2.57;;;22.90;79.90;;;;;;5092715;28;20436;-80
2023/05/21 01:11:27;;;;;;;2.50;2.20;;;22.90;79.40;;;;;;5093020;28;20441;-80
2023/05/21 01:13:54;;;;;;;2.70;2.50;;;22.90;79.10;;;;;;5096759;28;20443;-87
2023/05/21 01:16:22;;;;;;;2.80;2.60;;;22.90;78.90;;;;;;5081076;28;20817;-80
2023/05/21 01:18:48;;;;;;;2.77;2.57;;;23.00;78.60;;;;;;5076443;28;20767;-80
2023/05/21 01:21:16;;;;;;;2.37;2.17;;;22.90;78.40;;;;;;5076586;28;20442;-81
2023/05/21 01:23:44;;;;;;;2.60;2.40;;;22.90;77.60;;;;;;5075961;28;20547;-80
2023/05/21 01:26:12;;;;;;;2.63;2.43;;;22.90;77.50;;;;;;5076277;28;20790;-86
2023/05/21 01:28:38;;;;;;;2.60;2.20;;;22.90;77.20;;;;;;5076131;28;20826;-80
2023/05/21 01:31:16;;;;;;;2.23;2.10;;;22.90;77.30;;;;;;5076242;28;20481;-87
2023/05/21 01:33:49;;;;;;;2.53;2.33;;;22.90;76.40;;;;;;5076091;28;20439;-87
2023/05/21 01:36:22;;;;;;;2.60;2.07;;;22.90;76.30;;;;;;5076287;28;20462;-80
2023/05/21 01:39:00;;;;;;;2.17;1.97;;;22.90;76.30;;;;;;5076153;28;20448;-86
2023/05/21 01:41:31;;;;;;;2.60;2.40;;;22.90;76.00;;;;;;5076053;28;20492;-80
2023/05/21 01:43:59;;;;;;;2.40;2.20;;;22.90;76.40;;;;;;5076062;28;20482;-80
2023/05/21 01:46:33;;;;;;;2.80;2.03;;;22.80;75.90;;;;;;5075820;28;20926;-80
2023/05/21 01:49:00;;;;;;;2.30;2.10;;;22.80;76.00;;;;;;5080326;28;20442;-80
2023/05/21 01:51:27;;;;;;;2.00;1.90;;;22.90;76.00;;;;;;5095951;28;20447;-80
2023/05/21 01:53:55;;;;;;;2.70;2.30;;;22.80;75.90;;;;;;5095924;28;20470;-80
2023/05/21 01:56:24;;;;;;;2.30;2.10;;;22.80;75.40;;;;;;5096313;28;20439;-85
2023/05/21 01:58:51;;;;;;;2.30;2.10;;;22.80;75.80;;;;;;5095219;28;20525;-86
2023/05/21 02:01:19;;;;;;;2.50;2.30;;;22.80;75.20;;;;;;5095807;28;20930;-80
2023/05/21 02:03:45;;;;;;;3.67;2.60;;;22.80;75.90;;;;;;5093237;28;20429;-80
2023/05/21 02:06:12;;;;;;;1.87;1.57;;;22.80;75.30;;;;;;5075428;28;20468;-80
2023/05/21 02:08:39;;;;;;;2.27;2.07;;;22.80;75.20;;;;;;5077776;28;20452;-80
2023/05/21 02:11:07;;;;;;;2.40;2.20;;;22.80;75.40;;;;;;5095416;28;20919;-80
2023/05/21 02:13:41;;;;;;;1.77;1.63;;;22.80;75.70;;;;;;5095702;28;20434;-86
2023/05/21 02:16:10;;;;;;;2.47;2.27;;;22.80;75.40;;;;;;5095749;28;20528;-80
2023/05/21 02:18:37;;;;;;;1.90;1.80;;;22.80;74.80;;;;;;5095976;28;20434;-80
2023/05/21 02:21:04;;;;;;;1.87;1.77;;;22.80;75.30;;;;;;5095467;28;20920;-80
2023/05/21 02:23:31;;;;;;;1.83;1.73;;;22.80;75.60;;;;;;5094847;28;20518;-82
2023/05/21 02:25:57;;;;;;;3.80;2.10;;;22.80;76.30;;;;;;5095328;28;20503;-87
2023/05/21 02:28:26;;;;;;;2.10;1.87;;;22.80;75.30;;;;;;5091752;28;20443;-80
2023/05/21 02:30:52;;;;;;;2.37;2.17;;;22.80;75.40;;;;;;5084363;28;20534;-80
2023/05/21 02:33:20;;;;;;;5.33;2.40;;;22.80;75.50;;;;;;5095532;28;20513;-86
2023/05/21 02:35:47;;;;;;;2.07;1.87;;;22.80;75.60;;;;;;5095152;28;20979;-80
2023/05/21 02:38:18;;;;;;;2.20;2.00;;;22.80;75.40;;;;;;5094941;28;20798;-80
2023/05/21 02:40:44;;;;;;;2.27;2.07;;;22.80;75.80;;;;;;5075365;28;20501;-80
2023/05/21 02:43:11;;;;;;;2.00;1.87;;;22.80;75.50;;;;;;5074962;28;20434;-80
2023/05/21 02:45:40;;;;;;;2.93;2.43;;;22.80;75.70;;;;;;5074999;28;20491;-79
2023/05/21 02:48:06;;;;;;;2.10;2.00;;;22.80;75.40;;;;;;5074814;28;20446;-79
2023/05/21 02:50:33;;;;;;;2.00;1.80;;;22.70;76.60;;;;;;5074726;28;20443;-79
2023/05/21 02:53:00;;;;;;;2.27;2.07;;;22.80;75.50;;;;;;5078475;28;20434;-79
2023/05/21 02:55:27;;;;;;;2.47;2.27;;;22.80;75.70;;;;;;5095035;28;20441;-85
2023/05/21 02:57:53;;;;;;;2.03;1.93;;;22.70;75.70;;;;;;5094963;28;20435;-79
2023/05/21 03:00:20;;;;;;;1.73;1.63;;;22.80;75.70;;;;;;5094957;28;20438;-78
2023/05/21 03:02:48;;;;;;;2.03;1.90;;;22.80;76.50;;;;;;5094937;28;20433;-85
2023/05/21 03:05:15;;;;;;;2.77;2.10;;;22.70;76.20;;;;;;5094587;28;20493;-79
2023/05/21 03:07:42;;;;;;;1.80;1.70;;;22.70;76.20;;;;;;5094582;28;20448;-85
2023/05/21 03:10:09;;;;;;;2.10;2.00;;;22.70;76.40;;;;;;5094675;28;20438;-85
2023/05/21 03:12:36;;;;;;;2.80;2.33;;;22.80;76.10;;;;;;5094369;28;20438;-79
2023/05/21 03:15:03;;;;;;;2.60;2.40;;;22.80;76.00;;;;;;5094470;28;20974;-78
2023/05/21 03:17:30;;;;;;;1.73;1.63;;;22.80;76.10;;;;;;5093714;28;20930;-79
2023/05/21 03:19:59;;;;;;;2.00;1.90;;;22.80;76.10;;;;;;5094458;28;20509;-84
2023/05/21 03:22:25;;;;;;;1.70;1.60;;;22.70;75.70;;;;;;5094406;28;20454;-79
2023/05/21 03:24:52;;;;;;;2.30;1.97;;;22.70;76.60;;;;;;5093953;28;20501;-85
2023/05/21 03:27:19;;;;;;;1.80;1.70;;;22.70;76.10;;;;;;5094222;28;20445;-78
2023/05/21 03:29:45;;;;;;;1.93;1.83;;;22.70;75.90;;;;;;5081899;28;20530;-78
2023/05/21 03:32:13;;;;;;;2.60;2.03;;;22.70;76.10;;;;;;5073812;28;20448;-79
2023/05/21 03:34:40;;;;;;;1.83;1.73;;;22.70;76.00;;;;;;5073382;28;20449;-79
2023/05/21 03:37:08;;;;;;;2.40;2.20;;;22.70;76.00;;;;;;5074039;28;20451;-85
2023/05/21 03:39:35;;;;;;;2.30;2.13;;;22.70;76.20;;;;;;5073704;28;20466;-85
2023/05/21 03:42:01;;;;;;;1.90;1.70;;;22.70;76.50;;;;;;5077966;28;20443;-79
2023/05/21 03:44:31;;;;;;;2.00;1.90;;;22.70;76.20;;;;;;5093968;28;20574;-85
2023/05/21 03:46:57;;;;;;;1.97;1.77;;;22.70;76.30;;;;;;5094064;28;20495;-79
2023/05/21 03:49:24;;;;;;;2.80;2.50;;;22.70;76.70;;;;;;5094241;28;20445;-85
2023/05/21 03:51:51;;;;;;;2.27;2.07;;;22.70;76.10;;;;;;5094005;28;20449;-79
2023/05/21 03:54:19;;;;;;;3.23;2.20;;;22.70;76.40;;;;;;5093905;28;20435;-79
2023/05/21 03:56:46;;;;;;;2.20;2.07;;;22.70;77.00;;;;;;5093767;28;20942;-79
2023/05/21 03:59:13;;;;;;;2.03;1.83;;;22.70;76.60;;;;;;5093888;28;20446;-79
2023/05/21 04:01:40;;;;;;;1.70;1.40;;;22.70;76.30;;;;;;5093592;28;20444;-84
2023/05/21 04:04:07;;;;;;;2.50;2.30;;;22.70;76.40;;;;;;5093850;28;20438;-82
2023/05/21 04:06:33;;;;;;;1.87;1.77;;;22.70;76.60;;;;;;5088466;28;20489;-79
2023/05/21 04:09:00;;;;;;;1.70;1.60;;;22.70;76.40;;;;;;5073511;28;20470;-79
2023/05/21 04:11:30;;;;;;;1.87;1.77;;;22.70;76.80;;;;;;5073494;28;20493;-79
2023/05/21 04:13:56;;;;;;;2.30;2.10;;;22.70;75.70;;;;;;5073289;28;20439;-79
2023/05/21 04:16:23;;;;;;;1.90;1.70;;;22.70;76.60;;;;;;5073481;28;20768;-85
2023/05/21 04:18:51;;;;;;;1.63;1.53;;;22.70;76.60;;;;;;5090237;28;20450;-84
2023/05/21 04:21:17;;;;;;;2.03;1.83;;;22.70;76.60;;;;;;5093386;28;20497;-79
2023/05/21 04:23:44;;;;;;;2.27;2.07;;;22.70;76.90;;;;;;5093171;28;20482;-78
2023/05/21 04:26:12;;;;;;;2.37;1.90;;;22.70;76.60;;;;;;5093092;28;20473;-79
2023/05/21 04:28:40;;;;;;;1.83;1.73;;;22.70;76.30;;;;;;5093246;28;20478;-79
2023/05/21 04:31:07;;;;;;;2.70;1.83;;;22.70;76.40;;;;;;5092773;28;20451;-85
2023/05/21 04:33:34;;;;;;;1.63;1.53;;;22.70;76.90;;;;;;5093433;28;20439;-79
2023/05/21 04:36:02;;;;;;;2.67;2.47;;;22.70;76.60;;;;;;5093309;28;20805;-79
2023/05/21 04:38:29;;;;;;;1.70;1.60;;;22.70;76.70;;;;;;5093288;28;20447;-79
2023/05/21 04:40:57;;;;;;;2.10;2.00;;;22.70;76.70;;;;;;5093163;28;20445;-85
2023/05/21 04:43:25;;;;;;;2.40;2.20;;;22.70;76.80;;;;;;5093186;28;20477;-85
2023/05/21 04:45:54;;;;;;;2.20;2.00;;;22.70;76.90;;;;;;5094232;28;20479;-79
2023/05/21 04:48:21;;;;;;;2.67;1.80;;;22.70;76.80;;;;;;5097103;28;20516;-79
2023/05/21 04:50:48;;;;;;;2.30;2.00;;;22.70;76.90;;;;;;5097027;28;20445;-80
2023/05/21 04:53:15;;;;;;;1.83;1.73;;;22.70;76.80;;;;;;5097462;28;20435;-79
2023/05/21 04:55:42;;;;;;;2.07;1.97;;;22.70;76.70;;;;;;5090760;28;20444;-79
2023/05/21 04:58:09;;;;;;;2.27;1.97;;;22.70;77.50;;;;;;5076789;28;20449;-85
2023/05/21 05:00:37;;;;;;;2.77;2.00;;;22.70;77.30;;;;;;5076984;28;20486;-82
2023/05/21 05:03:05;;;;;;;2.10;1.90;;;22.70;76.60;;;;;;5076618;28;20443;-78
2023/05/21 05:05:32;;;;;;;1.87;1.77;;;22.70;77.40;;;;;;5076346;28;20519;-78
2023/05/21 05:07:59;;;;;;;2.10;1.90;;;22.70;77.30;;;;;;5077497;28;20443;-79
2023/05/21 05:10:26;;;;;;;2.13;1.93;;;22.70;77.50;;;;;;5076768;28;20454;-78
2023/05/21 05:12:52;;;;;;;1.93;1.83;;;22.70;77.60;;;;;;5076553;28;20452;-78
2023/05/21 05:15:19;;;;;;;1.70;1.60;;;22.70;77.70;;;;;;5076615;28;20442;-84
2023/05/21 05:17:47;;;;;;;1.80;1.70;;;22.70;78.00;;;;;;5076351;28;20443;-79
2023/05/21 05:20:15;;;;;;;1.90;1.80;;;22.70;78.70;;;;;;5077338;28;20953;-79
2023/05/21 05:22:42;;;;;;;1.77;1.67;;;22.70;78.40;;;;;;5076275;28;20791;-81
2023/05/21 05:25:10;;;;;;;1.90;1.77;;;22.70;78.50;;;;;;5076249;28;20501;-80
2023/05/21 05:27:37;;;;;;;1.97;1.87;;;22.70;78.50;;;;;;5076499;28;20443;-80
2023/05/21 05:30:04;;;;;;;2.13;2.03;;;22.70;79.20;;;;;;5076416;28;20445;-80
2023/05/21 05:32:31;;;;;;;1.90;1.70;;;22.70;79.10;;;;;;5077275;28;20780;-80
2023/05/21 05:34:58;;;;;;;2.50;2.30;;;22.70;78.40;;;;;;5076110;28;20929;-80
2023/05/21 05:37:26;;;;;;;1.70;1.60;;;22.70;78.80;;;;;;5076231;28;20442;-79
2023/05/21 05:39:53;;;;;;;2.63;1.90;;;22.70;78.30;;;;;;5075790;28;20438;-80
2023/05/21 05:42:19;;;;;;;1.53;1.43;;;22.70;78.20;;;;;;5076089;28;20447;-86
2023/05/21 05:44:46;;;;;;;2.03;1.93;;;22.70;78.80;;;;;;5081310;28;20452;-80
2023/05/21 05:47:13;;;;;;;1.77;1.67;;;22.70;78.50;;;;;;5096008;28;20450;-86
2023/05/21 05:49:40;;;;;;;1.90;1.80;;;22.70;78.40;;;;;;5095873;28;20449;-81
2023/05/21 05:52:07;;;;;;;2.00;1.90;;;22.70;78.70;;;;;;5096178;28;20438;-87
2023/05/21 05:54:35;;;;;;;2.03;1.90;;;22.70;78.70;;;;;;5096273;28;20446;-80
2023/05/21 05:57:02;;;;;;;1.83;1.70;;;22.70;78.40;;;;;;5093991;28;20493;-86
2023/05/21 05:59:29;;;;;;;2.43;2.20;;;22.70;78.50;;;;;;5095168;28;20912;-87
2023/05/21 06:01:55;;;;;;;1.93;1.83;;;22.70;78.40;;;;;;5095901;28;20443;-86
2023/05/21 06:04:22;;;;;;;1.80;1.70;;;22.70;77.90;;;;;;5095719;28;20533;-82
2023/05/21 06:06:49;;;;;;;1.97;1.80;;;22.80;77.70;;;;;;5093741;28;20510;-83
2023/05/21 06:09:16;;;;;;;1.70;1.60;;;22.80;78.10;;;;;;5096050;28;20796;-86
2023/05/21 06:11:44;;;;;;;1.90;1.80;;;22.80;78.00;;;;;;5095890;28;20447;-86
2023/05/21 06:14:11;;;;;;;1.70;1.60;;;22.90;77.50;;;;;;5095768;28;20964;-87
2023/05/21 06:16:38;;;;;;;1.73;1.63;;;22.70;77.40;;;;;;5095622;28;20454;-84
2023/05/21 06:19:04;;;;;;;1.97;1.87;;;22.70;77.80;;;;;;5095773;28;20781;-86
2023/05/21 06:21:31;;;;;;;1.83;1.73;;;22.70;77.20;;;;;;5095342;28;20445;-83
2023/05/21 06:23:58;;;;;;;1.83;1.70;;;22.80;77.40;;;;;;5095260;28;20486;-80
2023/05/21 06:26:25;;;;;;;2.27;2.07;;;22.80;77.90;;;;;;5095381;28;20491;-85
2023/05/21 06:28:53;;;;;;;1.70;1.43;;;22.80;78.10;;;;;;5095324;28;20437;-81
2023/05/21 06:31:21;;;;;;;1.87;1.77;;;22.80;78.70;;;;;;5093477;28;20443;-86
2023/05/21 06:33:49;;;;;;;1.83;1.73;;;22.80;78.00;;;;;;5095832;28;20469;-86
2023/05/21 06:36:16;;;;;;;2.03;1.83;;;22.80;78.40;;;;;;5095139;28;20463;-86
2023/05/21 06:38:42;;;;;;;1.60;1.50;;;22.80;78.20;;;;;;5095087;28;20439;-85
2023/05/21 06:41:09;;;;;;;2.30;2.10;;;22.80;78.60;;;;;;5094906;28;20521;-86
2023/05/21 06:43:36;;;;;;;1.87;1.77;;;22.80;79.10;;;;;;5095012;28;20450;-86
2023/05/21 06:46:04;;;;;;;1.77;1.53;;;22.80;79.20;;;;;;5095035;28;20487;-82
2023/05/21 06:48:31;;;;;;;1.70;1.60;;;22.80;78.50;;;;;;5093082;28;20433;-85
2023/05/21 06:50:58;;;;;;;2.03;1.83;;;22.80;78.50;;;;;;5094859;28;20427;-86
2023/05/21 06:53:24;;;;;;;1.67;1.57;;;22.80;78.80;;;;;;5094893;28;20440;-82
2023/05/21 06:55:52;;;;;;;1.60;1.43;;;22.80;78.50;;;;;;5094915;28;20438;-81
2023/05/21 06:58:20;;;;;;;1.70;1.60;;;22.80;78.20;;;;;;5093191;28;20455;-79
2023/05/21 07:00:47;;;;;;;1.60;1.50;;;22.80;77.80;;;;;;5095133;28;20443;-85
2023/05/21 07:03:15;;;;;;;1.80;1.70;;;22.80;78.00;;;;;;5094746;28;20449;-83
2023/05/21 07:05:42;;;;;;;2.00;1.80;;;22.80;77.90;;;;;;5094331;28;20578;-80
2023/05/21 07:08:09;;;;;;;1.73;1.63;;;22.80;77.10;;;;;;5094300;28;20450;-80
2023/05/21 07:10:36;;;;;;;1.53;1.43;;;22.80;77.30;;;;;;5092218;28;20449;-80
2023/05/21 07:13:02;;;;;;;2.17;1.97;;;22.80;77.10;;;;;;5084694;28;20938;-78
2023/05/21 07:15:29;;;;;;;2.03;1.93;;;22.80;76.30;;;;;;5083458;28;20442;-79
2023/05/21 07:17:56;;;;;;;3.13;2.93;;;22.70;76.00;;;;;;5094401;28;20473;-79
2023/05/21 07:20:24;;;;;;;5.33;4.13;;;22.80;76.70;;;;;;5092694;28;20443;-84
2023/05/21 07:22:51;;;;;;;3.30;3.10;;;22.70;77.60;;;;;;5075249;28;20830;-84
2023/05/21 07:25:18;;;;;;;4.03;3.63;;;22.70;77.30;;;;;;5073771;28;20490;-85
2023/05/21 07:27:45;;;;;;;4.03;3.70;;;22.70;78.20;;;;;;5090345;28;20541;-82
2023/05/21 07:30:12;;;;;;;5.50;4.93;;;22.60;77.90;;;;;;5095595;28;20960;-94
2023/05/21 07:32:38;;;;;;;6.33;5.83;;;22.60;79.10;;;;;;5094458;28;20440;-90
2023/05/21 07:35:06;;;;;;;10.33;6.20;;;22.50;79.10;;;;;;5094770;28;20464;-94
2023/05/21 07:37:34;;;;;;;6.63;5.90;;;22.50;79.60;;;;;;5094570;28;20450;-91
2023/05/21 07:40:01;;;;;;;8.20;6.73;;;22.40;79.90;;;;;;5094486;28;20456;-82
2023/05/21 07:42:28;;;;;;;5.40;4.90;;;22.40;80.20;;;;;;5094729;28;20533;-85
2023/05/21 07:44:55;;;;;;;5.80;3.17;;;22.40;79.80;;;;;;5094272;28;21020;-81
2023/05/21 07:47:22;;;;;;;6.40;5.80;;;22.40;78.40;;;;;;5093944;28;20482;-83
2023/05/21 07:49:49;;;;;;;6.90;5.07;;;22.40;80.00;;;;;;5088352;28;20446;-83
2023/05/21 07:52:16;;;;;;;7.10;6.37;;;22.40;80.20;;;;;;5093762;28;20443;-82
2023/05/21 07:54:44;;;;;;;8.10;5.40;;;22.40;81.00;;;;;;5093684;28;20449;-79
2023/05/21 07:57:10;;;;;;;6.73;6.23;;;22.50;81.00;;;;;;5093676;28;20448;-82
2023/05/21 07:59:37;;;;;;;6.53;5.90;;;22.40;81.10;;;;;;5093593;28;20439;-82
2023/05/21 08:02:04;;;;;;;7.33;6.47;;;22.40;81.30;;;;;;5091947;28;20450;-80
2023/05/21 08:04:31;;;;;;;6.13;5.53;;;22.40;81.30;;;;;;5093364;28;20453;-80
2023/05/21 08:06:58;;;;;;;6.97;6.47;;;22.50;81.50;;;;;;5093438;28;20491;-80
2023/05/21 08:09:25;;;;;;;6.90;6.40;;;22.40;81.60;;;;;;5093552;28;20498;-82
2023/05/21 08:11:53;;;;;;;7.13;5.90;;;22.40;81.40;;;;;;5091808;28;20440;-80
2023/05/21 08:14:20;;;;;;;7.03;6.23;;;22.40;81.40;;;;;;5093541;28;20452;-83
2023/05/21 08:16:48;;;;;;;6.23;5.70;;;22.40;81.50;;;;;;5085206;28;20444;-79
2023/05/21 08:19:15;;;;;;;6.63;6.10;;;22.40;81.30;;;;;;5110467;28;20790;-79
2023/05/21 08:21:41;;;;;;;8.77;6.83;;;22.50;81.60;;;;;;5092491;28;20440;-80
2023/05/21 08:24:08;;;;;;;6.63;5.50;;;22.40;81.50;;;;;;5089554;28;20471;-80
2023/05/21 08:26:35;;;;;;;6.17;5.67;;;22.50;81.10;;;;;;5091429;28;20835;-80
2023/05/21 08:29:03;;;;;;;6.00;5.43;;;22.50;80.90;;;;;;5091694;28;21243;-80
2023/05/21 08:31:30;;;;;;;6.20;5.60;;;22.60;81.40;;;;;;5089685;28;20523;-82
2023/05/21 08:33:57;;;;;;;5.97;5.47;;;22.60;80.20;;;;;;5113671;28;20449;-84
2023/05/21 08:36:24;;;;;;;6.03;5.43;;;22.70;80.80;;;;;;5098630;28;20460;-83
2023/05/21 08:38:51;;;;;;;4.60;4.30;;;22.70;80.20;;;;;;5093266;28;20445;-86
2023/05/21 08:41:21;;;;;;;5.47;4.20;;;22.70;80.00;;;;;;5093248;28;20445;-88
2023/05/21 08:43:53;;;;;;;7.33;3.97;;;22.70;79.10;;;;;;5092482;28;20440;-83
2023/05/21 08:46:23;;;;;;;4.57;4.27;;;22.70;78.60;;;;;;5086720;28;20500;-86
2023/05/21 08:48:53;;;;;;;10.50;3.83;;;22.70;78.50;;;;;;5072970;28;20447;-79
2023/05/21 08:51:21;;;;;;;6.50;5.90;;;22.70;78.40;;;;;;5081598;28;20506;-88
2023/05/21 08:53:49;;;;;;;5.53;4.87;;;22.80;79.80;;;;;;5084381;28;20933;-82
2023/05/21 08:56:16;;;;;;;6.10;5.40;;;22.80;80.30;;;;;;5077958;28;20515;-79
2023/05/21 08:58:46;;;;;;;6.10;5.50;;;22.80;80.90;;;;;;5092869;28;20445;-81
2023/05/21 09:01:12;;;;;;;4.97;4.57;;;22.80;80.50;;;;;;5089587;28;20447;-81
2023/05/21 09:03:42;;;;;;;12.50;5.13;;;22.90;79.60;;;;;;5083783;28;20447;-90
2023/05/21 09:06:12;;;;;;;6.33;5.07;;;22.90;79.10;;;;;;5073941;28;20472;-86
2023/05/21 09:08:43;;;;;;;5.20;4.70;;;22.90;79.20;;;;;;5072980;28;20446;-84
2023/05/21 09:11:10;;;;;;;4.70;4.27;;;22.90;79.40;;;;;;5084751;28;20435;-85
2023/05/21 09:13:38;;;;;;;4.63;4.33;;;22.90;79.00;;;;;;5092361;28;20444;-81
2023/05/21 09:16:06;;;;;;;5.60;4.70;;;23.00;79.30;;;;;;5092845;28;20463;-84
2023/05/21 09:18:33;;;;;;;9.27;4.60;;;22.90;79.10;;;;;;5092557;28;20450;-82
2023/05/21 09:21:24;;;;;;;5.10;4.70;;;23.00;79.00;;;;;;5092427;28;20450;-82
2023/05/21 09:23:54;;;;;;;6.10;4.40;;;23.00;78.80;;;;;;5092211;28;20470;-85
2023/05/21 09:26:21;;;;;;;4.53;4.13;;;23.10;78.90;;;;;;5092731;28;20482;-81
2023/05/21 09:28:50;;;;;;;4.87;4.50;;;23.10;78.60;;;;;;5092865;28;20930;-81
2023/05/21 09:31:17;;;;;;;4.10;3.80;;;23.10;78.70;;;;;;5092514;28;20448;-81
2023/05/21 09:33:47;;;;;;;4.90;4.40;;;23.10;79.30;;;;;;5094827;28;20929;-84
2023/05/21 09:36:18;;;;;;;4.07;3.73;;;23.20;78.50;;;;;;5096274;28;20454;-81
2023/05/21 09:38:45;;;;;;;4.20;3.90;;;23.20;78.40;;;;;;5096591;28;20438;-81
2023/05/21 09:41:12;;;;;;;3.90;3.60;;;23.20;78.50;;;;;;5096311;28;20426;-81
2023/05/21 09:43:42;;;;;;;4.23;3.93;;;23.20;78.00;;;;;;5096017;28;20441;-85
2023/05/21 09:46:09;;;;;;;3.93;3.63;;;23.20;77.90;;;;;;5095994;28;20431;-81
2023/05/21 09:48:37;;;;;;;4.07;3.60;;;23.20;77.50;;;;;;5096071;28;20573;-84
2023/05/21 09:51:12;;;;;;;4.23;3.90;;;23.20;77.20;;;;;;5095952;28;20443;-81
2023/05/21 09:53:50;;;;;;;4.20;3.90;;;23.30;77.30;;;;;;5095940;28;20433;-81
2023/05/21 09:56:21;;;;;;;3.80;3.60;;;23.30;77.10;;;;;;5095810;28;20442;-81
2023/05/21 09:58:48;;;;;;;4.40;4.00;;;23.30;77.40;;;;;;5096014;28;20450;-81
2023/05/21 10:01:15;;;;;;;5.13;4.53;;;23.30;77.30;;;;;;5095814;28;20441;-84
2023/05/21 10:03:44;;;;;;;7.20;3.93;;;23.30;77.10;;;;;;5095887;28;20798;-81
2023/05/21 10:06:11;;;;;;;4.87;4.47;;;23.30;77.10;;;;;;5095647;28;20457;-81
2023/05/21 10:08:44;;;;;;;4.43;4.10;;;23.30;77.10;;;;;;5095578;28;20439;-85
2023/05/21 10:11:13;;;;;;;3.97;3.57;;;23.40;77.10;;;;;;5095758;28;20435;-81
2023/05/21 10:13:48;;;;;;;3.77;3.53;;;23.40;77.20;;;;;;5095200;28;20442;-85
2023/05/21 10:16:15;;;;;;;6.90;4.20;;;23.40;76.90;;;;;;5095532;28;20462;-81
2023/05/21 10:18:45;;;;;;;4.47;4.07;;;23.30;77.10;;;;;;5095324;28;20447;-81
2023/05/21 10:21:12;;;;;;;3.83;3.53;;;23.40;77.20;;;;;;5095429;28;20451;-81
2023/05/21 10:23:40;;;;;;;4.13;3.83;;;23.40;77.30;;;;;;5094901;28;20517;-81
2023/05/21 10:26:08;;;;;;;4.10;3.70;;;23.40;77.30;;;;;;5095297;28;20442;-83
2023/05/21 10:28:37;;;;;;;4.10;3.80;;;23.40;77.30;;;;;;5095244;28;20436;-81
2023/05/21 10:31:04;;;;;;;5.97;4.20;;;23.40;76.90;;;;;;5095082;28;20925;-82
2023/05/21 10:33:32;;;;;;;4.57;3.70;;;23.40;77.10;;;;;;5095347;28;20460;-81
2023/05/21 10:35:59;;;;;;;4.17;3.80;;;23.40;76.80;;;;;;5095001;28;21050;-81
2023/05/21 10:38:29;;;;;;;4.30;3.97;;;23.40;76.80;;;;;;5095124;28;20446;-81
2023/05/21 10:40:56;;;;;;;3.83;3.50;;;23.40;76.90;;;;;;5094992;28;20446;-82
2023/05/21 10:43:38;;;;;;;3.97;3.60;;;23.40;77.20;;;;;;5094617;28;20442;-81
2023/05/21 10:46:56;;;;;;;4.10;3.73;;;23.40;76.90;;;;;;5094781;28;20951;-81
2023/05/21 10:49:35;;;;;;;3.90;3.60;;;23.40;77.10;;;;;;4993140;28;21129;-81
2023/05/21 10:52:14;;;;;;;4.10;3.80;;;23.40;77.30;;;;;;4993415;28;20533;-81
2023/05/21 10:55:12;;;;;;;3.90;3.60;;;23.40;77.30;;;;;;5067148;28;20790;-85
2023/05/21 10:57:58;;;;;;;3.73;3.37;;;23.50;77.30;;;;;;5094419;28;20466;-85
2023/05/21 11:00:30;;;;;;;3.77;3.47;;;23.40;77.60;;;;;;5094471;28;20438;-81
2023/05/21 11:02:58;;;;;;;4.10;3.70;;;23.40;77.40;;;;;;5094759;28;20840;-83
2023/05/21 11:05:41;;;;;;;3.33;3.13;;;23.50;77.50;;;;;;5094435;28;20542;-81
2023/05/21 11:08:21;;;;;;;4.00;3.70;;;23.50;77.50;;;;;;5094392;28;20479;-81
2023/05/21 11:10:53;;;;;;;3.67;3.47;;;23.50;77.30;;;;;;5094398;28;20442;-81
2023/05/21 11:13:20;;;;;;;4.20;3.90;;;23.60;77.70;;;;;;5094434;28;20439;-81
2023/05/21 11:16:07;;;;;;;3.20;3.00;;;23.60;77.40;;;;;;5094345;28;20439;-81
2023/05/21 11:18:57;;;;;;;3.73;3.43;;;23.60;77.30;;;;;;5094039;28;20448;-81
2023/05/21 11:21:27;;;;;;;3.73;3.43;;;23.60;77.30;;;;;;5094339;28;20779;-80
2023/05/21 11:23:55;;;;;;;3.50;3.20;;;23.50;77.40;;;;;;5094105;28;20516;-81
2023/05/21 11:26:23;;;;;;;3.77;3.57;;;23.70;77.60;;;;;;5094158;28;20522;-81
2023/05/21 11:28:51;;;;;;;4.27;3.47;;;23.60;77.80;;;;;;5093973;28;21001;-81
2023/05/21 11:31:25;;;;;;;3.77;3.47;;;23.60;77.60;;;;;;5094034;28;20440;-84
2023/05/21 11:34:20;;;;;;;3.53;3.23;;;23.60;77.80;;;;;;5094074;28;20809;-81
2023/05/21 11:36:48;;;;;;;3.53;3.33;;;23.60;78.10;;;;;;5094042;28;20929;-81
2023/05/21 11:39:20;;;;;;;3.97;3.67;;;23.60;78.20;;;;;;5094166;28;20447;-84
2023/05/21 11:41:57;;;;;;;3.70;3.40;;;23.60;78.00;;;;;;5093833;28;20457;-80
2023/05/21 11:44:38;;;;;;;3.10;2.90;;;23.60;78.20;;;;;;5093932;28;20917;-80
2023/05/21 11:47:08;;;;;;;4.07;3.77;;;23.60;77.80;;;;;;5093758;28;20475;-80
2023/05/21 11:49:36;;;;;;;5.07;3.67;;;23.60;78.30;;;;;;5093692;28;20434;-81
2023/05/21 11:52:03;;;;;;;3.73;3.43;;;23.60;78.30;;;;;;5093911;28;20439;-81
2023/05/21 11:54:36;;;;;;;4.63;4.20;;;23.80;78.60;;;;;;5093865;28;20442;-81
2023/05/21 11:57:06;;;;;;;3.87;3.57;;;23.60;78.50;;;;;;5093080;28;20544;-81
2023/05/21 11:59:33;;;;;;;2.80;2.60;;;23.60;78.60;;;;;;5093585;28;20434;-81
2023/05/21 12:02:00;;;;;;;3.57;3.27;;;23.70;78.90;;;;;;5093618;28;20496;-81
2023/05/21 12:04:31;;;;;;;3.77;3.47;;;23.70;78.80;;;;;;5093470;28;20821;-82
2023/05/21 12:06:58;;;;;;;2.93;2.73;;;23.70;78.90;;;;;;5093232;28;20432;-85
2023/05/21 12:09:25;;;;;;;4.03;3.73;;;23.70;78.70;;;;;;5093450;28;20435;-81
2023/05/21 12:11:51;;;;;;;3.33;3.13;;;23.70;79.10;;;;;;5093671;28;20445;-81
2023/05/21 12:14:18;;;;;;;3.60;3.37;;;23.70;78.70;;;;;;5093488;28;20435;-81
2023/05/21 12:16:45;;;;;;;2.87;2.67;;;23.70;78.70;;;;;;5093154;28;20964;-85
2023/05/21 12:19:12;;;;;;;3.10;2.90;;;23.70;78.80;;;;;;5093146;28;20945;-80
2023/05/21 12:21:41;;;;;;;3.30;3.10;;;23.70;79.00;;;;;;5093158;28;20553;-81
2023/05/21 12:24:08;;;;;;;3.60;3.30;;;23.80;79.50;;;;;;5092918;28;20985;-80
2023/05/21 12:26:35;;;;;;;3.20;3.00;;;23.80;79.10;;;;;;5092887;28;20440;-81
2023/05/21 12:29:04;;;;;;;3.33;3.13;;;23.80;79.30;;;;;;5092947;28;20489;-81
2023/05/21 12:31:31;;;;;;;3.60;3.30;;;23.80;79.10;;;;;;5092899;28;20444;-81
2023/05/21 12:33:58;;;;;;;3.90;3.60;;;23.80;79.00;;;;;;5092896;28;20446;-81
2023/05/21 12:36:27;;;;;;;3.40;3.20;;;23.80;79.40;;;;;;5092866;28;20465;-81
2023/05/21 12:38:56;;;;;;;3.30;3.10;;;23.80;79.60;;;;;;5093058;28;20458;-82
2023/05/21 12:41:23;;;;;;;3.10;2.90;;;23.80;79.70;;;;;;5093110;28;20806;-81
2023/05/21 12:43:51;;;;;;;3.87;3.57;;;23.80;79.50;;;;;;5093162;28;20459;-85
2023/05/21 12:46:18;;;;;;;3.33;3.10;;;23.80;79.20;;;;;;5092713;28;20437;-84
2023/05/21 12:48:54;;;;;;;3.43;3.23;;;23.90;79.50;;;;;;5092909;28;20482;-82
2023/05/21 12:51:21;;;;;;;4.20;3.90;;;23.90;79.40;;;;;;5093106;28;20512;-82